createdAt,value
2023-05-19T00:00:32.196Z,100928.14
2023-05-19T00:05:55.073Z,100931.67
2023-05-19T00:11:00.804Z,100928.19
2023-05-19T00:16:06.498Z,100925.79
2023-05-19T00:21:11.740Z,100924.83
2023-05-19T00:26:16.429Z,100924.70
2023-05-19T00:31:22.195Z,100931.48
2023-05-19T00:36:26.616Z,100932.98
2023-05-19T00:41:31.095Z,100927.18
2023-05-19T00:46:35.271Z,100923.55
2023-05-19T00:51:41.614Z,100920.48
2023-05-19T00:56:45.953Z,100919.15
2023-05-19T01:01:50.960Z,100923.36
2023-05-19T01:06:57.307Z,100922.98
2023-05-19T01:12:02.728Z,100920.57
2023-05-19T01:17:23.508Z,100921.26
2023-05-19T01:22:55.867Z,100928.45
2023-05-19T01:28:18.528Z,100926.27
2023-05-19T01:33:25.017Z,100927.61
2023-05-19T01:38:30.210Z,100928.17
2023-05-19T01:43:36.001Z,100931.81
2023-05-19T01:48:42.665Z,100931.33
2023-05-19T01:53:46.721Z,100931.36
2023-05-19T01:59:04.629Z,100936.85
2023-05-19T02:04:44.280Z,100929.93
2023-05-19T02:10:12.345Z,100928.02
2023-05-19T02:15:23.176Z,100925.27
2023-05-19T02:20:27.533Z,100919.02
2023-05-19T02:25:32.189Z,100919.73
2023-05-19T02:30:37.114Z,100918.55
2023-05-19T02:35:41.459Z,100921.05
2023-05-19T02:40:45.151Z,100915.86
2023-05-19T02:45:49.646Z,100915.39
2023-05-19T02:50:55.316Z,100916.83
2023-05-19T02:56:00.495Z,100916.02
2023-05-19T03:01:04.911Z,100910.08
2023-05-19T03:06:10.035Z,100914.06
2023-05-19T03:11:16.162Z,100914.02
2023-05-19T03:16:20.937Z,100916.36
2023-05-19T03:21:24.750Z,100917.73
2023-05-19T03:26:29.702Z,100915.23
2023-05-19T03:31:33.767Z,100914.45
2023-05-19T03:36:40.613Z,100910.30
2023-05-19T03:41:44.312Z,100911.69
2023-05-19T03:46:51.236Z,100907.08
2023-05-19T03:51:56.438Z,100909.65
2023-05-19T03:57:00.760Z,100913.01
2023-05-19T04:02:05.837Z,100912.69
2023-05-19T04:07:10.189Z,100914.13
2023-05-19T04:12:14.944Z,100917.74
2023-05-19T04:17:19.015Z,100918.20
2023-05-19T04:22:23.453Z,100917.73
2023-05-19T04:27:29.570Z,100925.09
2023-05-19T04:32:33.886Z,100920.99
2023-05-19T04:37:39.641Z,100922.59
2023-05-19T04:42:46.562Z,100922.48
2023-05-19T04:47:52.982Z,100921.95
2023-05-19T04:52:59.408Z,100921.61
2023-05-19T04:58:02.826Z,100925.17
2023-05-19T05:03:08.449Z,100925.84
2023-05-19T05:08:12.638Z,100923.26
2023-05-19T05:13:17.371Z,100916.25
2023-05-19T05:18:22.759Z,100910.73
2023-05-19T05:23:27.759Z,100910.38
2023-05-19T05:28:33.520Z,100906.98
2023-05-19T05:33:39.594Z,100906.25
2023-05-19T05:38:43.992Z,100905.73
2023-05-19T05:43:48.829Z,100906.66
2023-05-19T05:48:56.777Z,100910.60
2023-05-19T05:54:02.827Z,100903.63
2023-05-19T05:59:08.140Z,100906.59
2023-05-19T06:04:12.235Z,100899.23
2023-05-19T06:09:17.152Z,100898.53
2023-05-19T06:14:22.564Z,100907.23
2023-05-19T06:19:27.135Z,100909.75
2023-05-19T06:24:32.310Z,100913.50
2023-05-19T06:29:36.185Z,100921.05
2023-05-19T06:34:41.561Z,100914.38
2023-05-19T06:39:45.740Z,100923.95
2023-05-19T06:44:51.405Z,100926.75
2023-05-19T06:49:55.915Z,100922.25
2023-05-19T06:55:00.482Z,100917.38
2023-05-19T07:00:07.721Z,100916.96
2023-05-19T07:05:12.532Z,100918.87
2023-05-19T07:10:17.591Z,100921.00
2023-05-19T07:15:22.771Z,100923.11
2023-05-19T07:20:27.179Z,100921.31
2023-05-19T07:25:31.754Z,100919.90
2023-05-19T07:30:38.071Z,100918.08
2023-05-19T07:35:43.606Z,100918.67
2023-05-19T07:40:49.761Z,100915.26
2023-05-19T07:45:56.577Z,100912.09
2023-05-19T07:51:00.973Z,100920.63
2023-05-19T07:56:05.609Z,100919.80
2023-05-19T08:01:09.784Z,100923.27
2023-05-19T08:06:14.376Z,100919.96
2023-05-19T08:11:20.029Z,100915.91
2023-05-19T08:16:24.955Z,100908.70
2023-05-19T08:21:29.364Z,100909.36
2023-05-19T08:26:35.197Z,100905.85
2023-05-19T08:31:41.966Z,100906.66
2023-05-19T08:36:47.196Z,100914.05
2023-05-19T08:41:51.440Z,100915.52
2023-05-19T08:46:58.962Z,100917.98
2023-05-19T08:52:24.684Z,100911.10
2023-05-19T08:57:31.471Z,100912.53
2023-05-19T09:02:50.315Z,100913.35
2023-05-19T09:08:05.750Z,100912.27
2023-05-19T09:13:11.117Z,100909.48
2023-05-19T09:18:15.894Z,100914.36
2023-05-19T09:23:21.706Z,100913.86
2023-05-19T09:28:28.745Z,100903.50
2023-05-19T09:33:36.484Z,100904.05
2023-05-19T09:38:41.163Z,100913.48
2023-05-19T09:43:58.869Z,100915.74
2023-05-19T09:49:12.155Z,100914.91
2023-05-19T09:54:17.414Z,100913.39
2023-05-19T09:59:26.102Z,100907.50
2023-05-19T10:04:32.521Z,100908.41
2023-05-19T10:09:38.993Z,100899.02
2023-05-19T10:14:43.558Z,100902.46
2023-05-19T10:19:51.712Z,100908.35
2023-05-19T10:24:58.712Z,100901.06
2023-05-19T10:30:38.419Z,100889.59
2023-05-19T10:36:09.399Z,100893.21
2023-05-19T10:41:37.907Z,100887.89
2023-05-19T10:46:43.822Z,100884.63
2023-05-19T10:51:49.439Z,100885.52
2023-05-19T10:57:00.020Z,100892.31
2023-05-19T11:02:10.728Z,100893.92
2023-05-19T11:07:23.127Z,100891.73
2023-05-19T11:12:31.582Z,100896.29
2023-05-19T11:17:40.661Z,100901.64
2023-05-19T11:23:09.887Z,100902.52
2023-05-19T11:28:30.352Z,100900.64
2023-05-19T11:33:41.870Z,100902.09
2023-05-19T11:38:52.629Z,100901.11
2023-05-19T11:44:04.788Z,100903.52
2023-05-19T11:49:21.739Z,100900.99
2023-05-19T11:54:37.272Z,100898.17
2023-05-19T11:59:47.446Z,100903.73
2023-05-19T12:04:54.880Z,100901.51
2023-05-19T12:10:00.891Z,100903.37
2023-05-19T12:15:05.680Z,100906.70
2023-05-19T12:20:12.980Z,100905.71
2023-05-19T12:25:18.548Z,100903.29
2023-05-19T12:30:32.886Z,100904.41
2023-05-19T12:35:40.182Z,100904.34
2023-05-19T12:40:48.383Z,100904.81
2023-05-19T12:45:55.572Z,100895.83
2023-05-19T12:51:01.273Z,100894.86
2023-05-19T12:56:17.542Z,100891.77
2023-05-19T13:01:25.107Z,100887.36
2023-05-19T13:06:31.806Z,100892.22
2023-05-19T13:11:38.827Z,100896.89
2023-05-19T13:16:44.790Z,100895.33
2023-05-19T13:21:51.670Z,100894.17
2023-05-19T13:26:58.403Z,100890.77
2023-05-19T13:32:04.157Z,100887.63
2023-05-19T13:37:15.226Z,100888.59
2023-05-19T13:42:21.210Z,100884.75
2023-05-19T13:47:26.313Z,100882.58
2023-05-19T13:52:31.806Z,100882.98
2023-05-19T13:57:37.684Z,100883.33
2023-05-19T14:02:44.701Z,100877.41
2023-05-19T14:07:49.898Z,100876.42
2023-05-19T14:13:25.763Z,100876.64
2023-05-19T14:18:22.629Z,100874.70
2023-05-19T14:23:32.694Z,100868.84
2023-05-19T14:28:39.198Z,100873.17
2023-05-19T14:33:44.311Z,100872.74
2023-05-19T14:38:49.254Z,100875.03
2023-05-19T14:43:54.979Z,100876.76
2023-05-19T14:49:03.665Z,100872.71
2023-05-19T14:54:10.544Z,100877.33
2023-05-19T14:59:17.551Z,100881.84
2023-05-19T15:04:26.534Z,100879.72
2023-05-19T15:09:34.932Z,100873.81
2023-05-19T15:14:40.421Z,100879.06
2023-05-19T15:19:46.533Z,100884.30
2023-05-19T15:24:52.916Z,100884.91
2023-05-19T15:30:00.502Z,100881.19
2023-05-19T15:35:06.588Z,100882.94
2023-05-19T15:40:16.792Z,100878.54
2023-05-19T15:45:24.167Z,100876.52
2023-05-19T15:50:30.446Z,100875.59
2023-05-19T15:55:36.776Z,100876.14
2023-05-19T16:00:44.129Z,100871.40
2023-05-19T16:05:54.192Z,100866.27
2023-05-19T16:11:02.506Z,100869.36
2023-05-19T16:16:08.004Z,100870.02
2023-05-19T16:21:14.334Z,100869.11
2023-05-19T16:26:19.958Z,100866.59
2023-05-19T16:31:25.438Z,100871.58
2023-05-19T16:36:32.687Z,100877.89
2023-05-19T16:41:40.622Z,100877.13
2023-05-19T16:46:46.431Z,100873.61
2023-05-19T16:51:53.432Z,100872.85
2023-05-19T16:57:04.675Z,100872.41
2023-05-19T17:02:09.672Z,100875.54
2023-05-19T17:07:17.985Z,100881.38
2023-05-19T17:12:23.528Z,100878.38
2023-05-19T17:17:28.326Z,100884.17
2023-05-19T17:22:34.122Z,100884.83
2023-05-19T17:27:39.696Z,100886.03
2023-05-19T17:32:45.078Z,100883.97
2023-05-19T17:37:50.794Z,100881.84
2023-05-19T17:42:57.024Z,100878.73
2023-05-19T17:48:02.275Z,100878.98
2023-05-19T17:53:07.334Z,100873.45
2023-05-19T17:58:13.288Z,100878.29
2023-05-19T18:03:19.228Z,100880.47
2023-05-19T18:08:27.057Z,100876.06
2023-05-19T18:13:32.733Z,100880.98
2023-05-19T18:18:41.304Z,100878.96
2023-05-19T18:23:47.665Z,100876.63
2023-05-19T18:28:53.486Z,100883.20
2023-05-19T18:33:58.485Z,100893.84
2023-05-19T18:39:06.133Z,100901.81
2023-05-19T18:44:12.225Z,100903.98
2023-05-19T18:49:17.846Z,100907.56
2023-05-19T18:54:23.234Z,100909.86
2023-05-19T18:59:28.320Z,100911.27
2023-05-19T19:04:32.698Z,100914.02
2023-05-19T19:09:38.125Z,100910.39
2023-05-19T19:14:43.141Z,100906.60
2023-05-19T19:19:47.772Z,100909.26
2023-05-19T19:24:53.858Z,100900.88
2023-05-19T19:29:59.340Z,100906.13
2023-05-19T19:35:04.314Z,100905.09
2023-05-19T19:40:10.220Z,100904.27
2023-05-19T19:45:15.849Z,100913.79
2023-05-19T19:50:21.028Z,100911.72
2023-05-19T19:55:26.314Z,100916.88
2023-05-19T20:00:31.602Z,100921.81
2023-05-19T20:05:38.537Z,100928.48
2023-05-19T20:10:43.645Z,100931.18
2023-05-19T20:15:48.741Z,100932.98
2023-05-19T20:20:54.027Z,100934.48
2023-05-19T20:26:10.875Z,100932.75
2023-05-19T20:31:17.052Z,100937.65
2023-05-19T20:36:20.543Z,100935.67
2023-05-19T20:41:25.431Z,100935.83
2023-05-19T20:46:30.218Z,100935.77
2023-05-19T20:51:35.129Z,100929.98
2023-05-19T20:56:39.230Z,100930.61
2023-05-19T21:01:43.961Z,100933.62
2023-05-19T21:06:48.841Z,100933.74
2023-05-19T21:11:58.539Z,100938.64
2023-05-19T21:17:04.705Z,100936.44
2023-05-19T21:22:10.104Z,100926.28
2023-05-19T21:27:15.519Z,100924.15
2023-05-19T21:32:20.388Z,100927.04
2023-05-19T21:37:24.865Z,100925.23
2023-05-19T21:42:30.502Z,100927.91
2023-05-19T21:47:35.200Z,100931.56
2023-05-19T21:52:39.016Z,100930.78
2023-05-19T21:57:43.277Z,100930.65
2023-05-19T22:02:47.275Z,100928.19
2023-05-19T22:07:52.033Z,100924.61
2023-05-19T22:12:58.665Z,100921.33
2023-05-19T22:18:04.061Z,100916.21
2023-05-19T22:23:09.406Z,100920.06
2023-05-19T22:28:14.955Z,100922.23
2023-05-19T22:33:20.322Z,100924.83
2023-05-19T22:38:24.855Z,100926.13
2023-05-19T22:43:28.981Z,100926.44
2023-05-19T22:48:37.237Z,100923.69
2023-05-19T22:53:43.598Z,100922.70
2023-05-19T22:58:48.871Z,100912.92
2023-05-19T23:03:55.929Z,100910.95
2023-05-19T23:09:05.055Z,100907.76
2023-05-19T23:14:10.379Z,100907.52
2023-05-19T23:19:15.483Z,100903.23
2023-05-19T23:24:19.488Z,100913.45
2023-05-19T23:29:24.485Z,100917.25
2023-05-19T23:34:32.694Z,100920.51
2023-05-19T23:39:38.991Z,100922.06
2023-05-19T23:44:43.887Z,100916.52
2023-05-19T23:49:49.333Z,100913.38
2023-05-19T23:54:55.340Z,100906.80
